sensor_id;sensor_type;location;lat;lon;timestamp;P1;durP1;ratioP1;P2;durP2;ratioP2
11771;SDS011;12556;55.748;13.194;2023-12-28T00:01:49;13.03;;;4.07;;
11771;SDS011;12556;55.748;13.194;2023-12-28T00:04:16;16.57;;;4.30;;
11771;SDS011;12556;55.748;13.194;2023-12-28T00:06:44;13.47;;;3.60;;
11771;SDS011;12556;55.748;13.194;2023-12-28T00:09:11;7.50;;;4.23;;
11771;SDS011;12556;55.748;13.194;2023-12-28T00:11:38;5.90;;;3.03;;
11771;SDS011;12556;55.748;13.194;2023-12-28T00:14:05;10.33;;;3.00;;
11771;SDS011;12556;55.748;13.194;2023-12-28T00:16:32;8.73;;;3.60;;
11771;SDS011;12556;55.748;13.194;2023-12-28T00:19:01;8.83;;;2.47;;
11771;SDS011;12556;55.748;13.194;2023-12-28T00:21:32;6.23;;;2.67;;
11771;SDS011;12556;55.748;13.194;2023-12-28T00:24:00;7.93;;;3.20;;
11771;SDS011;12556;55.748;13.194;2023-12-28T00:26:27;5.57;;;2.07;;
11771;SDS011;12556;55.748;13.194;2023-12-28T00:28:54;10.13;;;2.70;;
11771;SDS011;12556;55.748;13.194;2023-12-28T00:31:21;8.30;;;2.63;;
11771;SDS011;12556;55.748;13.194;2023-12-28T00:33:48;5.80;;;2.27;;
11771;SDS011;12556;55.748;13.194;2023-12-28T00:36:15;9.53;;;3.30;;
11771;SDS011;12556;55.748;13.194;2023-12-28T00:38:42;5.57;;;1.83;;
11771;SDS011;12556;55.748;13.194;2023-12-28T00:41:11;7.23;;;2.47;;
11771;SDS011;12556;55.748;13.194;2023-12-28T00:43:38;8.57;;;2.30;;
11771;SDS011;12556;55.748;13.194;2023-12-28T00:46:04;7.70;;;2.90;;
11771;SDS011;12556;55.748;13.194;2023-12-28T00:48:31;6.10;;;2.37;;
11771;SDS011;12556;55.748;13.194;2023-12-28T00:50:58;10.80;;;2.80;;
11771;SDS011;12556;55.748;13.194;2023-12-28T00:53:25;6.00;;;2.80;;
11771;SDS011;12556;55.748;13.194;2023-12-28T00:55:52;6.17;;;2.63;;
11771;SDS011;12556;55.748;13.194;2023-12-28T00:58:20;5.80;;;2.63;;
11771;SDS011;12556;55.748;13.194;2023-12-28T01:00:47;13.17;;;3.20;;
11771;SDS011;12556;55.748;13.194;2023-12-28T01:03:18;8.70;;;3.40;;
11771;SDS011;12556;55.748;13.194;2023-12-28T01:05:45;8.20;;;3.00;;
11771;SDS011;12556;55.748;13.194;2023-12-28T01:08:15;9.07;;;3.13;;
11771;SDS011;12556;55.748;13.194;2023-12-28T01:10:42;10.27;;;3.10;;
11771;SDS011;12556;55.748;13.194;2023-12-28T01:13:09;13.27;;;3.33;;
11771;SDS011;12556;55.748;13.194;2023-12-28T01:15:38;9.60;;;3.90;;
11771;SDS011;12556;55.748;13.194;2023-12-28T01:18:05;8.70;;;3.17;;
11771;SDS011;12556;55.748;13.194;2023-12-28T01:20:32;8.10;;;2.73;;
11771;SDS011;12556;55.748;13.194;2023-12-28T01:22:59;10.07;;;3.17;;
11771;SDS011;12556;55.748;13.194;2023-12-28T01:25:27;8.70;;;3.20;;
11771;SDS011;12556;55.748;13.194;2023-12-28T01:27:53;11.50;;;3.97;;
11771;SDS011;12556;55.748;13.194;2023-12-28T01:30:20;6.87;;;3.50;;
11771;SDS011;12556;55.748;13.194;2023-12-28T01:32:49;8.37;;;2.73;;
11771;SDS011;12556;55.748;13.194;2023-12-28T01:35:16;7.93;;;3.33;;
11771;SDS011;12556;55.748;13.194;2023-12-28T01:37:43;10.60;;;3.07;;
11771;SDS011;12556;55.748;13.194;2023-12-28T01:40:10;10.27;;;4.03;;
11771;SDS011;12556;55.748;13.194;2023-12-28T01:42:37;8.53;;;3.30;;
11771;SDS011;12556;55.748;13.194;2023-12-28T01:45:05;7.57;;;3.23;;
11771;SDS011;12556;55.748;13.194;2023-12-28T01:47:35;8.10;;;3.40;;
11771;SDS011;12556;55.748;13.194;2023-12-28T01:50:04;11.63;;;3.87;;
11771;SDS011;12556;55.748;13.194;2023-12-28T01:52:32;11.57;;;3.67;;
11771;SDS011;12556;55.748;13.194;2023-12-28T01:55:00;10.83;;;4.07;;
11771;SDS011;12556;55.748;13.194;2023-12-28T01:57:28;7.27;;;3.33;;
11771;SDS011;12556;55.748;13.194;2023-12-28T01:59:55;8.77;;;3.57;;
11771;SDS011;12556;55.748;13.194;2023-12-28T02:02:23;7.50;;;4.30;;
11771;SDS011;12556;55.748;13.194;2023-12-28T02:04:50;8.70;;;3.77;;
11771;SDS011;12556;55.748;13.194;2023-12-28T02:07:19;8.47;;;3.67;;
11771;SDS011;12556;55.748;13.194;2023-12-28T02:09:47;8.33;;;4.00;;
11771;SDS011;12556;55.748;13.194;2023-12-28T02:12:14;14.57;;;4.83;;
11771;SDS011;12556;55.748;13.194;2023-12-28T02:14:41;8.73;;;4.33;;
11771;SDS011;12556;55.748;13.194;2023-12-28T02:17:10;11.20;;;5.30;;
11771;SDS011;12556;55.748;13.194;2023-12-28T02:19:45;11.47;;;5.03;;
11771;SDS011;12556;55.748;13.194;2023-12-28T02:22:15;8.87;;;4.57;;
11771;SDS011;12556;55.748;13.194;2023-12-28T02:24:58;11.80;;;5.30;;
11771;SDS011;12556;55.748;13.194;2023-12-28T02:27:30;10.53;;;5.13;;
11771;SDS011;12556;55.748;13.194;2023-12-28T02:29:57;11.97;;;5.23;;
11771;SDS011;12556;55.748;13.194;2023-12-28T02:32:27;11.37;;;5.57;;
11771;SDS011;12556;55.748;13.194;2023-12-28T02:35:01;10.63;;;4.93;;
11771;SDS011;12556;55.748;13.194;2023-12-28T02:37:32;10.70;;;4.73;;
11771;SDS011;12556;55.748;13.194;2023-12-28T02:40:02;10.63;;;4.93;;
11771;SDS011;12556;55.748;13.194;2023-12-28T02:42:30;9.53;;;4.70;;
11771;SDS011;12556;55.748;13.194;2023-12-28T02:44:57;20.23;;;5.63;;
11771;SDS011;12556;55.748;13.194;2023-12-28T02:47:24;9.63;;;4.67;;
11771;SDS011;12556;55.748;13.194;2023-12-28T02:49:51;10.03;;;5.37;;
11771;SDS011;12556;55.748;13.194;2023-12-28T02:52:18;15.07;;;5.47;;
11771;SDS011;12556;55.748;13.194;2023-12-28T02:54:45;11.03;;;5.90;;
11771;SDS011;12556;55.748;13.194;2023-12-28T02:57:13;10.20;;;5.03;;
11771;SDS011;12556;55.748;13.194;2023-12-28T02:59:43;12.57;;;5.77;;
11771;SDS011;12556;55.748;13.194;2023-12-28T03:02:10;9.10;;;4.80;;
11771;SDS011;12556;55.748;13.194;2023-12-28T03:04:37;10.77;;;5.17;;
11771;SDS011;12556;55.748;13.194;2023-12-28T03:07:04;9.77;;;4.90;;
11771;SDS011;12556;55.748;13.194;2023-12-28T03:09:32;8.27;;;4.63;;
11771;SDS011;12556;55.748;13.194;2023-12-28T03:11:59;7.67;;;4.80;;
11771;SDS011;12556;55.748;13.194;2023-12-28T03:14:28;12.80;;;4.93;;
11771;SDS011;12556;55.748;13.194;2023-12-28T03:16:55;12.13;;;4.83;;
11771;SDS011;12556;55.748;13.194;2023-12-28T03:19:22;8.33;;;4.67;;
11771;SDS011;12556;55.748;13.194;2023-12-28T03:21:48;7.17;;;4.13;;
11771;SDS011;12556;55.748;13.194;2023-12-28T03:24:15;9.43;;;4.23;;
11771;SDS011;12556;55.748;13.194;2023-12-28T03:26:42;8.47;;;4.20;;
11771;SDS011;12556;55.748;13.194;2023-12-28T03:29:09;7.80;;;3.77;;
11771;SDS011;12556;55.748;13.194;2023-12-28T03:31:39;5.40;;;3.63;;
11771;SDS011;12556;55.748;13.194;2023-12-28T03:34:06;8.03;;;3.97;;
11771;SDS011;12556;55.748;13.194;2023-12-28T03:36:33;5.50;;;3.97;;
11771;SDS011;12556;55.748;13.194;2023-12-28T03:39:00;7.17;;;4.23;;
11771;SDS011;12556;55.748;13.194;2023-12-28T03:41:28;11.20;;;3.70;;
11771;SDS011;12556;55.748;13.194;2023-12-28T03:43:55;6.50;;;3.77;;
11771;SDS011;12556;55.748;13.194;2023-12-28T03:46:21;7.40;;;3.73;;
11771;SDS011;12556;55.748;13.194;2023-12-28T03:48:50;6.33;;;4.10;;
11771;SDS011;12556;55.748;13.194;2023-12-28T03:51:16;8.27;;;3.77;;
11771;SDS011;12556;55.748;13.194;2023-12-28T03:53:43;9.63;;;4.80;;
11771;SDS011;12556;55.748;13.194;2023-12-28T03:56:17;14.73;;;4.97;;
11771;SDS011;12556;55.748;13.194;2023-12-28T03:58:46;8.13;;;4.70;;
11771;SDS011;12556;55.748;13.194;2023-12-28T04:01:13;10.43;;;5.20;;
11771;SDS011;12556;55.748;13.194;2023-12-28T04:03:40;10.90;;;5.07;;
11771;SDS011;12556;55.748;13.194;2023-12-28T04:06:08;13.50;;;5.00;;
11771;SDS011;12556;55.748;13.194;2023-12-28T04:08:35;12.10;;;4.73;;
11771;SDS011;12556;55.748;13.194;2023-12-28T04:11:02;12.73;;;4.97;;
11771;SDS011;12556;55.748;13.194;2023-12-28T04:13:29;12.00;;;5.67;;
11771;SDS011;12556;55.748;13.194;2023-12-28T04:15:56;15.13;;;6.13;;
11771;SDS011;12556;55.748;13.194;2023-12-28T04:18:23;11.30;;;5.47;;
11771;SDS011;12556;55.748;13.194;2023-12-28T04:20:50;13.97;;;6.37;;
11771;SDS011;12556;55.748;13.194;2023-12-28T04:23:18;17.67;;;6.17;;
11771;SDS011;12556;55.748;13.194;2023-12-28T04:25:45;13.13;;;5.90;;
11771;SDS011;12556;55.748;13.194;2023-12-28T04:28:12;14.87;;;6.00;;
11771;SDS011;12556;55.748;13.194;2023-12-28T04:30:39;10.63;;;6.03;;
11771;SDS011;12556;55.748;13.194;2023-12-28T04:33:06;17.70;;;6.23;;
11771;SDS011;12556;55.748;13.194;2023-12-28T04:35:33;13.13;;;6.23;;
11771;SDS011;12556;55.748;13.194;2023-12-28T04:38:00;13.43;;;6.50;;
11771;SDS011;12556;55.748;13.194;2023-12-28T04:40:29;11.97;;;5.97;;
11771;SDS011;12556;55.748;13.194;2023-12-28T04:42:55;10.23;;;6.30;;
11771;SDS011;12556;55.748;13.194;2023-12-28T04:45:22;15.73;;;6.77;;
11771;SDS011;12556;55.748;13.194;2023-12-28T04:47:49;14.33;;;6.73;;
11771;SDS011;12556;55.748;13.194;2023-12-28T04:50:16;14.07;;;6.40;;
11771;SDS011;12556;55.748;13.194;2023-12-28T04:52:43;13.47;;;6.33;;
11771;SDS011;12556;55.748;13.194;2023-12-28T04:55:10;13.27;;;5.80;;
11771;SDS011;12556;55.748;13.194;2023-12-28T04:57:38;18.60;;;6.00;;
11771;SDS011;12556;55.748;13.194;2023-12-28T05:00:07;11.90;;;5.73;;
11771;SDS011;12556;55.748;13.194;2023-12-28T05:02:35;11.63;;;6.23;;
11771;SDS011;12556;55.748;13.194;2023-12-28T05:05:02;14.97;;;5.97;;
11771;SDS011;12556;55.748;13.194;2023-12-28T05:07:29;12.97;;;5.87;;
11771;SDS011;12556;55.748;13.194;2023-12-28T05:09:56;10.67;;;6.10;;
11771;SDS011;12556;55.748;13.194;2023-12-28T05:12:23;10.00;;;5.90;;
11771;SDS011;12556;55.748;13.194;2023-12-28T05:14:51;11.10;;;5.57;;
11771;SDS011;12556;55.748;13.194;2023-12-28T05:17:18;8.37;;;5.50;;
11771;SDS011;12556;55.748;13.194;2023-12-28T05:19:45;14.47;;;6.33;;
11771;SDS011;12556;55.748;13.194;2023-12-28T05:22:12;8.90;;;5.60;;
11771;SDS011;12556;55.748;13.194;2023-12-28T05:24:39;8.80;;;6.10;;
11771;SDS011;12556;55.748;13.194;2023-12-28T05:27:05;8.70;;;5.83;;
11771;SDS011;12556;55.748;13.194;2023-12-28T05:29:32;8.80;;;5.67;;
11771;SDS011;12556;55.748;13.194;2023-12-28T05:32:01;11.20;;;5.60;;
11771;SDS011;12556;55.748;13.194;2023-12-28T05:34:28;11.73;;;6.37;;
11771;SDS011;12556;55.748;13.194;2023-12-28T05:36:54;10.53;;;6.40;;
11771;SDS011;12556;55.748;13.194;2023-12-28T05:39:21;12.80;;;6.20;;
11771;SDS011;12556;55.748;13.194;2023-12-28T05:41:48;13.97;;;6.27;;
11771;SDS011;12556;55.748;13.194;2023-12-28T05:44:15;11.23;;;5.80;;
11771;SDS011;12556;55.748;13.194;2023-12-28T05:46:42;7.80;;;5.63;;
11771;SDS011;12556;55.748;13.194;2023-12-28T05:49:11;9.07;;;5.97;;
11771;SDS011;12556;55.748;13.194;2023-12-28T05:51:38;13.87;;;5.93;;
11771;SDS011;12556;55.748;13.194;2023-12-28T05:54:06;14.37;;;6.40;;
11771;SDS011;12556;55.748;13.194;2023-12-28T05:56:33;9.10;;;5.33;;
11771;SDS011;12556;55.748;13.194;2023-12-28T05:59:00;14.57;;;5.30;;
11771;SDS011;12556;55.748;13.194;2023-12-28T06:01:27;14.37;;;6.00;;
11771;SDS011;12556;55.748;13.194;2023-12-28T06:03:54;10.43;;;5.50;;
11771;SDS011;12556;55.748;13.194;2023-12-28T06:06:22;12.73;;;5.83;;
11771;SDS011;12556;55.748;13.194;2023-12-28T06:08:49;8.83;;;5.40;;
11771;SDS011;12556;55.748;13.194;2023-12-28T06:11:16;11.87;;;5.53;;
11771;SDS011;12556;55.748;13.194;2023-12-28T06:13:43;9.20;;;6.03;;
11771;SDS011;12556;55.748;13.194;2023-12-28T06:16:10;13.47;;;6.03;;
11771;SDS011;12556;55.748;13.194;2023-12-28T06:18:37;11.20;;;5.87;;
11771;SDS011;12556;55.748;13.194;2023-12-28T06:21:04;9.13;;;5.60;;
11771;SDS011;12556;55.748;13.194;2023-12-28T06:23:33;9.40;;;5.97;;
11771;SDS011;12556;55.748;13.194;2023-12-28T06:26:03;13.00;;;6.40;;
11771;SDS011;12556;55.748;13.194;2023-12-28T06:28:31;8.77;;;5.63;;
11771;SDS011;12556;55.748;13.194;2023-12-28T06:30:59;13.63;;;5.50;;
11771;SDS011;12556;55.748;13.194;2023-12-28T06:33:26;7.73;;;5.10;;
11771;SDS011;12556;55.748;13.194;2023-12-28T06:35:54;13.43;;;5.63;;
11771;SDS011;12556;55.748;13.194;2023-12-28T06:38:23;11.70;;;5.30;;
11771;SDS011;12556;55.748;13.194;2023-12-28T06:40:51;9.57;;;5.70;;
11771;SDS011;12556;55.748;13.194;2023-12-28T06:43:18;9.80;;;5.27;;
11771;SDS011;12556;55.748;13.194;2023-12-28T06:45:45;11.57;;;5.37;;
11771;SDS011;12556;55.748;13.194;2023-12-28T06:48:12;11.10;;;5.23;;
11771;SDS011;12556;55.748;13.194;2023-12-28T06:50:39;8.60;;;5.50;;
11771;SDS011;12556;55.748;13.194;2023-12-28T06:53:05;10.43;;;5.80;;
11771;SDS011;12556;55.748;13.194;2023-12-28T06:55:32;8.17;;;5.63;;
11771;SDS011;12556;55.748;13.194;2023-12-28T06:58:01;9.37;;;4.97;;
11771;SDS011;12556;55.748;13.194;2023-12-28T07:00:28;15.40;;;5.40;;
11771;SDS011;12556;55.748;13.194;2023-12-28T07:02:56;8.63;;;5.60;;
11771;SDS011;12556;55.748;13.194;2023-12-28T07:05:22;9.80;;;5.60;;
11771;SDS011;12556;55.748;13.194;2023-12-28T07:07:50;9.50;;;5.07;;
11771;SDS011;12556;55.748;13.194;2023-12-28T07:10:17;8.00;;;5.50;;
11771;SDS011;12556;55.748;13.194;2023-12-28T07:12:43;13.23;;;5.63;;
11771;SDS011;12556;55.748;13.194;2023-12-28T07:15:12;12.27;;;4.93;;
11771;SDS011;12556;55.748;13.194;2023-12-28T07:17:39;10.47;;;5.50;;
11771;SDS011;12556;55.748;13.194;2023-12-28T07:20:07;11.37;;;5.63;;
11771;SDS011;12556;55.748;13.194;2023-12-28T07:22:35;7.57;;;5.13;;
11771;SDS011;12556;55.748;13.194;2023-12-28T07:25:03;11.23;;;5.33;;
11771;SDS011;12556;55.748;13.194;2023-12-28T07:27:31;12.60;;;5.57;;
11771;SDS011;12556;55.748;13.194;2023-12-28T07:29:58;11.40;;;5.63;;
11771;SDS011;12556;55.748;13.194;2023-12-28T07:32:27;10.70;;;5.50;;
11771;SDS011;12556;55.748;13.194;2023-12-28T07:34:55;8.17;;;5.43;;
11771;SDS011;12556;55.748;13.194;2023-12-28T07:37:22;11.17;;;5.70;;
11771;SDS011;12556;55.748;13.194;2023-12-28T07:39:49;8.13;;;5.10;;
11771;SDS011;12556;55.748;13.194;2023-12-28T07:42:16;8.70;;;5.57;;
11771;SDS011;12556;55.748;13.194;2023-12-28T07:44:43;11.73;;;5.57;;
11771;SDS011;12556;55.748;13.194;2023-12-28T07:47:10;9.97;;;5.20;;
11771;SDS011;12556;55.748;13.194;2023-12-28T07:49:39;11.27;;;4.80;;
11771;SDS011;12556;55.748;13.194;2023-12-28T07:52:06;13.07;;;5.73;;
11771;SDS011;12556;55.748;13.194;2023-12-28T07:54:33;10.87;;;4.73;;
11771;SDS011;12556;55.748;13.194;2023-12-28T07:56:59;8.90;;;5.27;;
11771;SDS011;12556;55.748;13.194;2023-12-28T07:59:26;8.27;;;4.57;;
11771;SDS011;12556;55.748;13.194;2023-12-28T08:01:55;6.60;;;4.40;;
11771;SDS011;12556;55.748;13.194;2023-12-28T08:04:22;9.13;;;4.40;;
11771;SDS011;12556;55.748;13.194;2023-12-28T08:06:50;10.97;;;4.63;;
11771;SDS011;12556;55.748;13.194;2023-12-28T08:09:17;10.93;;;4.27;;
11771;SDS011;12556;55.748;13.194;2023-12-28T08:11:45;10.53;;;4.53;;
11771;SDS011;12556;55.748;13.194;2023-12-28T08:14:12;8.37;;;3.60;;
11771;SDS011;12556;55.748;13.194;2023-12-28T08:16:39;12.17;;;4.00;;
11771;SDS011;12556;55.748;13.194;2023-12-28T08:19:06;9.33;;;4.20;;
11771;SDS011;12556;55.748;13.194;2023-12-28T08:21:33;9.97;;;3.73;;
11771;SDS011;12556;55.748;13.194;2023-12-28T08:24:02;10.40;;;4.00;;
11771;SDS011;12556;55.748;13.194;2023-12-28T08:26:29;12.13;;;4.40;;
11771;SDS011;12556;55.748;13.194;2023-12-28T08:28:57;6.93;;;4.07;;
11771;SDS011;12556;55.748;13.194;2023-12-28T08:31:24;6.37;;;4.30;;
11771;SDS011;12556;55.748;13.194;2023-12-28T08:33:51;10.53;;;4.00;;
11771;SDS011;12556;55.748;13.194;2023-12-28T08:36:18;9.60;;;3.60;;
11771;SDS011;12556;55.748;13.194;2023-12-28T08:38:45;9.57;;;4.13;;
11771;SDS011;12556;55.748;13.194;2023-12-28T08:41:20;7.93;;;3.70;;
11771;SDS011;12556;55.748;13.194;2023-12-28T08:43:49;9.80;;;3.90;;
11771;SDS011;12556;55.748;13.194;2023-12-28T08:46:17;8.53;;;4.40;;
11771;SDS011;12556;55.748;13.194;2023-12-28T08:48:44;7.90;;;4.23;;
11771;SDS011;12556;55.748;13.194;2023-12-28T08:51:11;9.33;;;4.13;;
11771;SDS011;12556;55.748;13.194;2023-12-28T08:53:39;8.47;;;3.60;;
11771;SDS011;12556;55.748;13.194;2023-12-28T08:56:12;10.57;;;4.10;;
11771;SDS011;12556;55.748;13.194;2023-12-28T08:58:41;8.70;;;3.70;;
11771;SDS011;12556;55.748;13.194;2023-12-28T09:01:08;12.13;;;3.57;;
11771;SDS011;12556;55.748;13.194;2023-12-28T09:03:35;7.30;;;3.47;;
11771;SDS011;12556;55.748;13.194;2023-12-28T09:06:02;8.60;;;3.63;;
11771;SDS011;12556;55.748;13.194;2023-12-28T09:08:29;11.53;;;4.37;;
11771;SDS011;12556;55.748;13.194;2023-12-28T09:10:56;10.03;;;4.00;;
11771;SDS011;12556;55.748;13.194;2023-12-28T09:13:23;9.27;;;3.47;;
11771;SDS011;12556;55.748;13.194;2023-12-28T09:15:52;8.57;;;3.80;;
11771;SDS011;12556;55.748;13.194;2023-12-28T09:18:19;11.93;;;3.83;;
11771;SDS011;12556;55.748;13.194;2023-12-28T09:20:46;8.63;;;4.03;;
11771;SDS011;12556;55.748;13.194;2023-12-28T09:23:15;8.70;;;3.83;;
11771;SDS011;12556;55.748;13.194;2023-12-28T09:25:42;9.33;;;3.30;;
11771;SDS011;12556;55.748;13.194;2023-12-28T09:28:08;8.83;;;3.77;;
11771;SDS011;12556;55.748;13.194;2023-12-28T09:30:35;8.17;;;3.80;;
11771;SDS011;12556;55.748;13.194;2023-12-28T09:33:04;7.93;;;3.93;;
11771;SDS011;12556;55.748;13.194;2023-12-28T09:35:31;6.90;;;3.70;;
11771;SDS011;12556;55.748;13.194;2023-12-28T09:37:58;8.90;;;3.37;;
11771;SDS011;12556;55.748;13.194;2023-12-28T09:40:25;12.20;;;3.73;;
11771;SDS011;12556;55.748;13.194;2023-12-28T09:42:53;9.27;;;3.30;;
11771;SDS011;12556;55.748;13.194;2023-12-28T09:45:27;7.47;;;3.10;;
11771;SDS011;12556;55.748;13.194;2023-12-28T09:47:54;5.43;;;3.57;;
11771;SDS011;12556;55.748;13.194;2023-12-28T09:50:22;8.30;;;3.53;;
11771;SDS011;12556;55.748;13.194;2023-12-28T09:52:51;6.70;;;3.00;;
11771;SDS011;12556;55.748;13.194;2023-12-28T09:55:19;8.50;;;2.63;;
11771;SDS011;12556;55.748;13.194;2023-12-28T09:57:46;4.90;;;2.20;;
11771;SDS011;12556;55.748;13.194;2023-12-28T10:00:14;5.03;;;2.07;;
11771;SDS011;12556;55.748;13.194;2023-12-28T10:02:43;5.77;;;1.90;;
11771;SDS011;12556;55.748;13.194;2023-12-28T10:05:12;4.67;;;1.77;;
11771;SDS011;12556;55.748;13.194;2023-12-28T10:07:41;3.57;;;2.27;;
11771;SDS011;12556;55.748;13.194;2023-12-28T10:10:09;5.87;;;2.23;;
11771;SDS011;12556;55.748;13.194;2023-12-28T10:12:36;7.47;;;2.50;;
11771;SDS011;12556;55.748;13.194;2023-12-28T10:15:03;5.90;;;2.87;;
11771;SDS011;12556;55.748;13.194;2023-12-28T10:17:32;6.30;;;2.43;;
11771;SDS011;12556;55.748;13.194;2023-12-28T10:20:00;8.37;;;2.87;;
11771;SDS011;12556;55.748;13.194;2023-12-28T10:22:29;6.23;;;3.07;;
11771;SDS011;12556;55.748;13.194;2023-12-28T10:24:57;8.77;;;3.43;;
11771;SDS011;12556;55.748;13.194;2023-12-28T10:27:25;10.43;;;4.00;;
11771;SDS011;12556;55.748;13.194;2023-12-28T10:29:53;6.60;;;3.10;;
11771;SDS011;12556;55.748;13.194;2023-12-28T10:32:21;13.30;;;4.27;;
11771;SDS011;12556;55.748;13.194;2023-12-28T10:34:50;7.20;;;4.10;;
11771;SDS011;12556;55.748;13.194;2023-12-28T10:37:18;6.20;;;3.67;;
11771;SDS011;12556;55.748;13.194;2023-12-28T10:39:47;9.63;;;5.03;;
11771;SDS011;12556;55.748;13.194;2023-12-28T10:42:21;10.57;;;3.77;;
11771;SDS011;12556;55.748;13.194;2023-12-28T10:44:55;9.80;;;3.83;;
11771;SDS011;12556;55.748;13.194;2023-12-28T10:47:31;6.87;;;3.87;;
11771;SDS011;12556;55.748;13.194;2023-12-28T10:50:00;5.93;;;3.80;;
11771;SDS011;12556;55.748;13.194;2023-12-28T10:52:31;6.50;;;4.03;;
11771;SDS011;12556;55.748;13.194;2023-12-28T10:55:11;9.10;;;3.50;;
11771;SDS011;12556;55.748;13.194;2023-12-28T10:57:50;9.27;;;4.20;;
11771;SDS011;12556;55.748;13.194;2023-12-28T11:00:24;12.63;;;4.10;;
11771;SDS011;12556;55.748;13.194;2023-12-28T11:02:56;10.23;;;4.27;;
11771;SDS011;12556;55.748;13.194;2023-12-28T11:05:28;7.60;;;3.70;;
11771;SDS011;12556;55.748;13.194;2023-12-28T11:07:57;8.97;;;3.43;;
11771;SDS011;12556;55.748;13.194;2023-12-28T11:10:25;12.30;;;4.37;;
11771;SDS011;12556;55.748;13.194;2023-12-28T11:12:56;20.23;;;3.87;;
11771;SDS011;12556;55.748;13.194;2023-12-28T11:15:23;8.97;;;3.77;;
11771;SDS011;12556;55.748;13.194;2023-12-28T11:17:52;8.40;;;3.43;;
11771;SDS011;12556;55.748;13.194;2023-12-28T11:20:19;10.43;;;3.70;;
11771;SDS011;12556;55.748;13.194;2023-12-28T11:22:46;11.53;;;3.87;;
11771;SDS011;12556;55.748;13.194;2023-12-28T11:25:15;8.53;;;3.03;;
11771;SDS011;12556;55.748;13.194;2023-12-28T11:27:43;10.00;;;3.07;;
11771;SDS011;12556;55.748;13.194;2023-12-28T11:30:13;7.30;;;3.30;;
11771;SDS011;12556;55.748;13.194;2023-12-28T11:32:40;10.70;;;3.40;;
11771;SDS011;12556;55.748;13.194;2023-12-28T11:35:08;11.37;;;3.50;;
11771;SDS011;12556;55.748;13.194;2023-12-28T11:37:38;7.90;;;2.70;;
11771;SDS011;12556;55.748;13.194;2023-12-28T11:40:12;8.47;;;2.93;;
11771;SDS011;12556;55.748;13.194;2023-12-28T11:42:50;8.77;;;2.13;;
11771;SDS011;12556;55.748;13.194;2023-12-28T11:45:19;11.80;;;3.20;;
11771;SDS011;12556;55.748;13.194;2023-12-28T11:47:46;8.33;;;3.13;;
11771;SDS011;12556;55.748;13.194;2023-12-28T11:50:14;11.23;;;3.13;;
11771;SDS011;12556;55.748;13.194;2023-12-28T11:52:41;10.87;;;3.00;;
11771;SDS011;12556;55.748;13.194;2023-12-28T11:55:08;10.23;;;3.30;;
11771;SDS011;12556;55.748;13.194;2023-12-28T11:57:36;7.13;;;3.13;;
11771;SDS011;12556;55.748;13.194;2023-12-28T12:00:04;9.70;;;3.43;;
11771;SDS011;12556;55.748;13.194;2023-12-28T12:02:35;9.50;;;3.00;;
11771;SDS011;12556;55.748;13.194;2023-12-28T12:05:02;12.27;;;3.50;;
11771;SDS011;12556;55.748;13.194;2023-12-28T12:07:30;7.87;;;3.43;;
11771;SDS011;12556;55.748;13.194;2023-12-28T12:09:57;6.07;;;3.83;;
11771;SDS011;12556;55.748;13.194;2023-12-28T12:12:24;9.83;;;3.63;;
11771;SDS011;12556;55.748;13.194;2023-12-28T12:14:52;11.13;;;4.20;;
11771;SDS011;12556;55.748;13.194;2023-12-28T12:17:19;15.67;;;4.37;;
11771;SDS011;12556;55.748;13.194;2023-12-28T12:19:47;10.83;;;4.13;;
11771;SDS011;12556;55.748;13.194;2023-12-28T12:22:18;14.27;;;4.13;;
11771;SDS011;12556;55.748;13.194;2023-12-28T12:24:47;13.70;;;4.10;;
11771;SDS011;12556;55.748;13.194;2023-12-28T12:27:17;10.07;;;3.80;;
11771;SDS011;12556;55.748;13.194;2023-12-28T12:29:45;10.97;;;3.97;;
11771;SDS011;12556;55.748;13.194;2023-12-28T12:32:12;9.03;;;4.10;;
11771;SDS011;12556;55.748;13.194;2023-12-28T12:34:39;14.73;;;4.00;;
11771;SDS011;12556;55.748;13.194;2023-12-28T12:37:10;14.43;;;3.23;;
11771;SDS011;12556;55.748;13.194;2023-12-28T12:39:37;13.63;;;3.70;;
11771;SDS011;12556;55.748;13.194;2023-12-28T12:42:04;14.83;;;4.53;;
11771;SDS011;12556;55.748;13.194;2023-12-28T12:44:32;16.70;;;4.07;;
11771;SDS011;12556;55.748;13.194;2023-12-28T12:46:59;16.27;;;4.00;;
11771;SDS011;12556;55.748;13.194;2023-12-28T12:49:26;14.20;;;3.77;;
11771;SDS011;12556;55.748;13.194;2023-12-28T12:51:53;13.87;;;3.93;;
11771;SDS011;12556;55.748;13.194;2023-12-28T12:54:23;16.90;;;4.40;;
11771;SDS011;12556;55.748;13.194;2023-12-28T12:56:50;14.33;;;4.67;;
11771;SDS011;12556;55.748;13.194;2023-12-28T12:59:18;21.30;;;5.27;;
11771;SDS011;12556;55.748;13.194;2023-12-28T13:01:45;12.40;;;4.83;;
11771;SDS011;12556;55.748;13.194;2023-12-28T13:04:14;17.53;;;4.30;;
11771;SDS011;12556;55.748;13.194;2023-12-28T13:06:42;21.53;;;5.43;;
11771;SDS011;12556;55.748;13.194;2023-12-28T13:09:09;16.37;;;4.53;;
11771;SDS011;12556;55.748;13.194;2023-12-28T13:11:38;11.77;;;3.73;;
11771;SDS011;12556;55.748;13.194;2023-12-28T13:14:05;12.93;;;3.50;;
11771;SDS011;12556;55.748;13.194;2023-12-28T13:16:32;13.60;;;3.97;;
11771;SDS011;12556;55.748;13.194;2023-12-28T13:18:59;12.60;;;3.60;;
11771;SDS011;12556;55.748;13.194;2023-12-28T13:21:26;12.37;;;3.93;;
11771;SDS011;12556;55.748;13.194;2023-12-28T13:23:53;19.63;;;4.40;;
11771;SDS011;12556;55.748;13.194;2023-12-28T13:26:22;15.20;;;4.40;;
11771;SDS011;12556;55.748;13.194;2023-12-28T13:28:50;16.97;;;4.17;;
11771;SDS011;12556;55.748;13.194;2023-12-28T13:31:17;19.97;;;4.83;;
11771;SDS011;12556;55.748;13.194;2023-12-28T13:33:44;16.57;;;4.13;;
11771;SDS011;12556;55.748;13.194;2023-12-28T13:36:11;16.40;;;4.07;;
11771;SDS011;12556;55.748;13.194;2023-12-28T13:38:38;19.40;;;4.83;;
11771;SDS011;12556;55.748;13.194;2023-12-28T13:41:05;14.43;;;5.40;;
11771;SDS011;12556;55.748;13.194;2023-12-28T13:43:32;14.07;;;4.47;;
11771;SDS011;12556;55.748;13.194;2023-12-28T13:46:00;14.27;;;4.23;;
11771;SDS011;12556;55.748;13.194;2023-12-28T13:48:29;17.33;;;4.97;;
11771;SDS011;12556;55.748;13.194;2023-12-28T13:50:56;27.27;;;5.23;;
11771;SDS011;12556;55.748;13.194;2023-12-28T13:53:22;16.87;;;4.60;;
11771;SDS011;12556;55.748;13.194;2023-12-28T13:55:49;16.87;;;5.10;;
11771;SDS011;12556;55.748;13.194;2023-12-28T13:58:16;16.60;;;4.60;;
11771;SDS011;12556;55.748;13.194;2023-12-28T14:00:43;21.33;;;4.90;;
11771;SDS011;12556;55.748;13.194;2023-12-28T14:03:14;19.03;;;5.00;;
11771;SDS011;12556;55.748;13.194;2023-12-28T14:05:41;22.17;;;4.93;;
11771;SDS011;12556;55.748;13.194;2023-12-28T14:08:08;21.90;;;4.80;;
11771;SDS011;12556;55.748;13.194;2023-12-28T14:10:35;15.13;;;5.63;;
11771;SDS011;12556;55.748;13.194;2023-12-28T14:13:03;20.93;;;5.23;;
11771;SDS011;12556;55.748;13.194;2023-12-28T14:15:30;23.03;;;5.13;;
11771;SDS011;12556;55.748;13.194;2023-12-28T14:17:57;13.87;;;4.77;;
11771;SDS011;12556;55.748;13.194;2023-12-28T14:20:26;18.10;;;4.77;;
11771;SDS011;12556;55.748;13.194;2023-12-28T14:22:53;18.07;;;4.27;;
11771;SDS011;12556;55.748;13.194;2023-12-28T14:25:21;14.97;;;4.80;;
11771;SDS011;12556;55.748;13.194;2023-12-28T14:27:48;16.50;;;4.70;;
11771;SDS011;12556;55.748;13.194;2023-12-28T14:30:16;19.20;;;5.77;;
11771;SDS011;12556;55.748;13.194;2023-12-28T14:32:44;19.23;;;5.47;;